createdAt,value
2023-03-27T00:01:27.619Z,7.06
2023-03-27T00:03:56.018Z,7.06
2023-03-27T00:06:25.315Z,6.96
2023-03-27T00:08:53.540Z,6.80
2023-03-27T00:11:25.081Z,6.55
2023-03-27T00:13:55.952Z,6.40
2023-03-27T00:16:26.909Z,6.26
2023-03-27T00:18:55.632Z,6.24
2023-03-27T00:21:24.464Z,6.20
2023-03-27T00:23:52.846Z,6.19
2023-03-27T00:26:23.872Z,6.20
2023-03-27T00:28:52.910Z,6.22
2023-03-27T00:31:21.550Z,6.24
2023-03-27T00:33:49.749Z,6.27
2023-03-27T00:36:17.767Z,6.26
2023-03-27T00:38:45.965Z,6.25
2023-03-27T00:41:14.074Z,6.23
2023-03-27T00:43:44.147Z,6.26
2023-03-27T00:46:21.681Z,6.30
2023-03-27T00:48:52.805Z,6.36
2023-03-27T00:51:24.152Z,6.47
2023-03-27T00:53:53.406Z,6.57
2023-03-27T00:56:21.984Z,6.69
2023-03-27T00:58:52.737Z,6.81
2023-03-27T01:01:25.023Z,6.86
2023-03-27T01:03:54.094Z,6.89
2023-03-27T01:06:23.381Z,6.93
2023-03-27T01:08:52.267Z,6.94
2023-03-27T01:11:36.056Z,6.83
2023-03-27T01:14:42.994Z,6.79
2023-03-27T01:17:20.531Z,6.69
2023-03-27T01:20:34.029Z,6.65
2023-03-27T01:23:58.545Z,6.58
2023-03-27T01:26:38.624Z,6.55
2023-03-27T01:29:25.863Z,6.54
2023-03-27T01:32:04.628Z,6.42
2023-03-27T01:34:42.865Z,6.42
2023-03-27T01:37:32.958Z,6.36
2023-03-27T01:40:05.342Z,6.42
2023-03-27T01:42:59.700Z,6.50
2023-03-27T01:45:54.795Z,6.52
2023-03-27T01:48:22.873Z,6.48
2023-03-27T01:50:57.817Z,6.44
2023-03-27T01:53:37.937Z,6.45
2023-03-27T01:56:26.192Z,6.38
2023-03-27T01:58:57.923Z,6.37
2023-03-27T02:01:40.027Z,6.41
2023-03-27T02:04:15.827Z,6.43
2023-03-27T02:06:49.472Z,6.46
2023-03-27T02:09:26.236Z,6.51
2023-03-27T02:12:04.188Z,6.57
2023-03-27T02:14:45.359Z,6.63
2023-03-27T02:17:16.331Z,6.66
2023-03-27T02:19:54.647Z,6.69
2023-03-27T02:22:38.182Z,6.77
2023-03-27T02:25:26.452Z,6.77
2023-03-27T02:28:06.741Z,6.75
2023-03-27T02:30:43.148Z,6.78
2023-03-27T02:33:24.686Z,6.78
2023-03-27T02:36:02.404Z,6.70
2023-03-27T02:38:51.684Z,6.68
2023-03-27T02:41:29.081Z,6.65
2023-03-27T02:44:36.601Z,6.63
2023-03-27T02:47:28.737Z,6.44
2023-03-27T02:50:20.686Z,6.33
2023-03-27T02:52:56.730Z,6.28
2023-03-27T02:55:34.461Z,6.16
2023-03-27T02:58:11.215Z,6.12
2023-03-27T03:00:50.600Z,6.10
2023-03-27T03:03:42.849Z,6.13
2023-03-27T03:06:30.171Z,6.17
2023-03-27T03:09:06.321Z,6.16
2023-03-27T03:11:36.752Z,6.17
2023-03-27T03:14:06.120Z,6.21
2023-03-27T03:16:34.962Z,6.23
2023-03-27T03:19:03.768Z,6.27
2023-03-27T03:21:32.294Z,6.28
2023-03-27T03:24:01.405Z,6.31
2023-03-27T03:26:30.249Z,6.33
2023-03-27T03:29:00.948Z,6.33
2023-03-27T03:31:43.438Z,6.32
2023-03-27T03:34:18.733Z,6.32
2023-03-27T03:36:49.976Z,6.35
2023-03-27T03:39:22.645Z,6.36
2023-03-27T03:41:51.467Z,6.35
2023-03-27T03:44:19.707Z,6.40
2023-03-27T03:46:48.252Z,6.47
2023-03-27T03:49:22.088Z,6.51
2023-03-27T03:52:04.045Z,6.55
2023-03-27T03:54:33.640Z,6.59
2023-03-27T03:57:03.329Z,6.65
2023-03-27T03:59:32.259Z,6.70
2023-03-27T04:02:29.818Z,6.69
2023-03-27T04:05:11.834Z,6.74
2023-03-27T04:07:41.374Z,6.71
2023-03-27T04:10:28.509Z,6.76
2023-03-27T04:12:58.570Z,6.78
2023-03-27T04:15:46.235Z,6.78
2023-03-27T04:18:32.538Z,6.79
2023-03-27T04:21:02.343Z,6.78
2023-03-27T04:23:30.484Z,6.75
2023-03-27T04:26:00.824Z,6.77
2023-03-27T04:28:39.666Z,6.79
2023-03-27T04:31:26.542Z,6.78
2023-03-27T04:34:13.550Z,6.79
2023-03-27T04:37:02.567Z,6.82
2023-03-27T04:39:31.378Z,6.86
2023-03-27T04:41:59.531Z,6.96
2023-03-27T04:44:28.778Z,7.09
2023-03-27T04:47:02.206Z,7.30
2023-03-27T04:49:31.230Z,7.50
2023-03-27T04:52:06.809Z,7.68
2023-03-27T04:54:35.640Z,7.81
2023-03-27T04:57:03.821Z,7.95
2023-03-27T04:59:32.319Z,8.07
2023-03-27T05:02:35.835Z,8.21
2023-03-27T05:05:11.335Z,8.32
2023-03-27T05:07:39.440Z,8.39
2023-03-27T05:10:09.139Z,8.39
2023-03-27T05:12:43.598Z,8.42
2023-03-27T05:15:16.215Z,8.41
2023-03-27T05:17:53.266Z,8.38
2023-03-27T05:20:24.566Z,8.29
2023-03-27T05:22:55.139Z,8.20
2023-03-27T05:25:26.921Z,8.19
2023-03-27T05:27:55.985Z,8.19
2023-03-27T05:30:27.339Z,8.18
2023-03-27T05:33:08.598Z,8.19
2023-03-27T05:35:37.996Z,8.19
2023-03-27T05:38:06.705Z,8.20
2023-03-27T05:40:39.425Z,8.19
2023-03-27T05:43:08.413Z,8.23
2023-03-27T05:45:38.169Z,8.29
2023-03-27T05:48:07.444Z,8.30
2023-03-27T05:50:39.409Z,8.34
2023-03-27T05:53:15.809Z,8.34
2023-03-27T05:56:08.514Z,8.35
2023-03-27T05:58:46.597Z,8.36
2023-03-27T06:01:14.742Z,8.37
2023-03-27T06:03:43.003Z,8.36
2023-03-27T06:06:22.564Z,8.23
2023-03-27T06:08:59.310Z,8.26
2023-03-27T06:11:28.207Z,8.17
2023-03-27T06:13:58.841Z,7.97
2023-03-27T06:16:40.325Z,7.91
2023-03-27T06:19:41.320Z,7.91
2023-03-27T06:22:09.620Z,7.85
2023-03-27T06:24:38.999Z,7.96
2023-03-27T06:27:10.826Z,8.13
2023-03-27T06:29:39.459Z,8.30
2023-03-27T06:32:07.778Z,8.52
2023-03-27T06:34:41.112Z,8.73
2023-03-27T06:37:46.762Z,8.91
2023-03-27T06:40:24.218Z,9.07
2023-03-27T06:43:02.456Z,9.18
2023-03-27T06:45:49.987Z,9.26
2023-03-27T06:48:36.853Z,9.31
2023-03-27T06:51:06.816Z,9.36
2023-03-27T06:53:37.531Z,9.52
2023-03-27T06:56:08.162Z,9.67
2023-03-27T06:59:02.479Z,9.82
2023-03-27T07:01:31.406Z,9.95
2023-03-27T07:04:13.673Z,10.06
2023-03-27T07:06:50.670Z,10.06
2023-03-27T07:09:19.547Z,10.19
2023-03-27T07:11:57.421Z,10.31
2023-03-27T07:14:25.830Z,10.41
2023-03-27T07:16:53.886Z,10.47
2023-03-27T07:19:24.731Z,10.56
2023-03-27T07:22:01.397Z,10.70
2023-03-27T07:24:29.574Z,10.78
2023-03-27T07:26:58.368Z,10.93
2023-03-27T07:29:33.108Z,11.06
2023-03-27T07:32:04.506Z,11.18
2023-03-27T07:34:41.239Z,11.31
2023-03-27T07:37:28.243Z,11.46
2023-03-27T07:40:16.506Z,11.55
2023-03-27T07:42:51.407Z,11.55
2023-03-27T07:45:22.904Z,11.46
2023-03-27T07:47:52.944Z,11.42
2023-03-27T07:50:22.101Z,11.30
2023-03-27T07:52:51.301Z,11.10
2023-03-27T07:55:22.352Z,10.86
2023-03-27T07:58:03.220Z,10.73
2023-03-27T08:00:38.908Z,10.58
2023-03-27T08:03:16.836Z,10.50
2023-03-27T08:05:56.649Z,10.44
2023-03-27T08:08:27.167Z,10.23
2023-03-27T08:11:00.592Z,10.20
2023-03-27T08:13:32.240Z,10.26
2023-03-27T08:16:06.836Z,10.25
2023-03-27T08:18:36.494Z,10.25
2023-03-27T08:21:07.196Z,10.23
2023-03-27T08:23:37.869Z,10.16
2023-03-27T08:26:18.355Z,10.12
2023-03-27T08:29:07.365Z,10.03
2023-03-27T08:31:35.434Z,9.91
2023-03-27T08:34:06.213Z,9.86
2023-03-27T08:36:54.602Z,9.80
2023-03-27T08:39:23.059Z,9.78
2023-03-27T08:42:03.092Z,9.79
2023-03-27T08:44:37.035Z,9.85
2023-03-27T08:47:36.248Z,10.04
2023-03-27T08:50:26.331Z,10.19
2023-03-27T08:53:17.493Z,10.41
2023-03-27T08:55:46.277Z,10.64
2023-03-27T08:58:30.512Z,10.78
2023-03-27T09:01:12.176Z,10.78
2023-03-27T09:04:05.208Z,11.04
2023-03-27T09:06:52.575Z,11.34
2023-03-27T09:09:48.794Z,11.48
2023-03-27T09:12:45.921Z,11.68
2023-03-27T09:15:32.507Z,11.90
2023-03-27T09:18:27.578Z,12.10
2023-03-27T09:21:01.909Z,12.20
2023-03-27T09:23:45.555Z,12.33
2023-03-27T09:26:37.239Z,12.37
2023-03-27T09:29:30.220Z,12.35
2023-03-27T09:32:16.223Z,12.39
2023-03-27T09:34:45.195Z,12.40
2023-03-27T09:37:18.036Z,12.41
2023-03-27T09:39:51.675Z,12.43
2023-03-27T09:42:32.864Z,12.48
2023-03-27T09:45:04.423Z,12.39
2023-03-27T09:47:45.602Z,12.31
2023-03-27T09:50:35.323Z,12.25
2023-03-27T09:53:18.334Z,12.04
2023-03-27T09:56:21.807Z,11.97
2023-03-27T09:58:54.050Z,11.87
2023-03-27T10:01:23.303Z,11.76
2023-03-27T10:03:56.893Z,11.57
2023-03-27T10:06:45.311Z,11.55
2023-03-27T10:09:34.431Z,11.46
2023-03-27T10:12:08.251Z,11.40
2023-03-27T10:14:43.718Z,11.34
2023-03-27T10:17:40.096Z,11.25
2023-03-27T10:20:18.471Z,11.15
2023-03-27T10:22:54.894Z,11.12
2023-03-27T10:25:36.235Z,11.17
2023-03-27T10:28:28.935Z,11.28
2023-03-27T10:31:26.693Z,11.25
2023-03-27T10:34:06.117Z,11.48
2023-03-27T10:36:57.908Z,11.58
2023-03-27T10:39:29.722Z,11.64
2023-03-27T10:42:17.920Z,11.44
2023-03-27T10:44:51.231Z,11.50
2023-03-27T10:47:24.526Z,11.56
2023-03-27T10:50:06.155Z,11.62
2023-03-27T10:53:06.360Z,11.76
2023-03-27T10:55:51.825Z,11.78
2023-03-27T10:58:37.591Z,11.92
2023-03-27T11:01:12.586Z,12.15
2023-03-27T11:03:53.310Z,12.29
2023-03-27T11:06:27.426Z,12.34
2023-03-27T11:09:18.571Z,12.12
2023-03-27T11:12:11.605Z,12.00
2023-03-27T11:14:50.762Z,12.13
2023-03-27T11:17:29.507Z,12.14
2023-03-27T11:21:03.673Z,12.14
2023-03-27T11:23:52.153Z,12.10
2023-03-27T11:26:38.249Z,12.07
2023-03-27T11:29:14.731Z,12.03
2023-03-27T11:31:52.866Z,11.96
2023-03-27T11:34:45.048Z,11.74
2023-03-27T11:38:01.630Z,11.64
2023-03-27T11:40:42.806Z,11.66
2023-03-27T11:43:13.571Z,11.66
2023-03-27T11:45:46.647Z,11.56
2023-03-27T11:48:47.111Z,11.55
2023-03-27T11:51:51.179Z,11.50
2023-03-27T11:54:31.628Z,11.28
2023-03-27T11:57:15.648Z,11.20
2023-03-27T11:59:55.818Z,11.18
2023-03-27T12:02:30.767Z,11.01
2023-03-27T12:05:25.232Z,10.88
2023-03-27T12:08:45.987Z,10.87
2023-03-27T12:11:17.550Z,10.77
2023-03-27T12:14:01.068Z,10.95
2023-03-27T12:16:55.359Z,11.14
2023-03-27T12:19:38.409Z,11.26
2023-03-27T12:22:23.903Z,11.16
2023-03-27T12:24:59.776Z,11.24
2023-03-27T12:27:55.922Z,11.21
2023-03-27T12:31:04.178Z,11.24
2023-03-27T12:34:03.386Z,11.28
2023-03-27T12:36:38.733Z,11.37
2023-03-27T12:39:24.403Z,11.37
2023-03-27T12:41:52.929Z,11.32
2023-03-27T12:45:03.160Z,11.40
2023-03-27T12:47:31.668Z,11.50
2023-03-27T12:50:20.813Z,11.59
2023-03-27T12:52:53.230Z,11.66
2023-03-27T12:55:33.154Z,11.74
2023-03-27T12:58:04.215Z,11.73
2023-03-27T13:01:00.796Z,11.84
2023-03-27T13:03:57.289Z,11.96
2023-03-27T13:06:35.715Z,12.13
2023-03-27T13:09:53.104Z,12.31
2023-03-27T13:12:33.575Z,12.30
2023-03-27T13:15:24.292Z,12.32
2023-03-27T13:18:17.353Z,12.41
2023-03-27T13:20:57.260Z,12.49
2023-03-27T13:23:45.562Z,12.53
2023-03-27T13:26:33.343Z,12.52
2023-03-27T13:29:02.958Z,12.45
2023-03-27T13:31:47.705Z,12.29
2023-03-27T13:34:28.033Z,12.24
2023-03-27T13:37:11.795Z,12.24
2023-03-27T13:39:59.768Z,12.23
2023-03-27T13:42:34.720Z,12.09
2023-03-27T13:45:17.754Z,12.13
2023-03-27T13:48:09.310Z,12.15
2023-03-27T13:51:19.636Z,12.08
2023-03-27T13:54:18.944Z,12.02
2023-03-27T13:57:21.170Z,12.06
2023-03-27T14:00:34.053Z,11.99
2023-03-27T14:03:42.243Z,11.93
2023-03-27T14:06:49.477Z,11.81
2023-03-27T14:09:17.789Z,11.65
2023-03-27T14:12:48.615Z,11.52
2023-03-27T14:15:56.602Z,11.23
2023-03-27T14:19:00.891Z,11.03
2023-03-27T14:21:49.690Z,10.90
2023-03-27T14:24:38.841Z,10.91
2023-03-27T14:27:19.006Z,10.92
2023-03-27T14:29:49.631Z,10.97
2023-03-27T14:32:19.302Z,11.02
2023-03-27T14:34:54.793Z,11.05
2023-03-27T14:37:37.046Z,11.05
2023-03-27T14:40:26.327Z,11.00
2023-03-27T14:42:58.639Z,10.93
2023-03-27T14:45:33.223Z,10.89
2023-03-27T14:48:13.872Z,10.79
2023-03-27T14:50:50.388Z,10.67
2023-03-27T14:53:26.376Z,10.69
2023-03-27T14:56:29.652Z,10.67
2023-03-27T14:59:26.738Z,10.70
2023-03-27T15:02:02.021Z,10.57
2023-03-27T15:04:33.043Z,10.57
2023-03-27T15:07:34.328Z,10.46
2023-03-27T15:10:07.914Z,10.51
2023-03-27T15:13:02.134Z,10.39
2023-03-27T15:15:40.734Z,10.36
2023-03-27T15:18:22.866Z,10.22
2023-03-27T15:20:55.247Z,10.19
2023-03-27T15:23:28.652Z,10.19
2023-03-27T15:25:59.793Z,10.04
2023-03-27T15:28:38.097Z,9.99
2023-03-27T15:31:08.388Z,9.97
2023-03-27T15:33:46.602Z,9.86
2023-03-27T15:36:26.510Z,9.86
2023-03-27T15:39:00.840Z,9.87
2023-03-27T15:41:28.765Z,9.89
2023-03-27T15:44:06.279Z,9.91
2023-03-27T15:46:46.533Z,9.89
2023-03-27T15:49:37.296Z,9.88
2023-03-27T15:52:31.367Z,9.88
2023-03-27T15:55:01.298Z,9.86
2023-03-27T15:57:29.846Z,9.82
2023-03-27T16:00:09.103Z,9.82
2023-03-27T16:02:48.095Z,9.77
2023-03-27T16:05:18.263Z,9.78
2023-03-27T16:07:48.843Z,9.75
2023-03-27T16:10:32.951Z,9.71
2023-03-27T16:13:03.118Z,9.63
2023-03-27T16:15:45.181Z,9.59
2023-03-27T16:18:34.969Z,9.53
2023-03-27T16:21:23.429Z,9.48
2023-03-27T16:23:51.670Z,9.38
2023-03-27T16:26:30.650Z,9.37
2023-03-27T16:29:03.417Z,9.30
2023-03-27T16:31:31.588Z,9.18
2023-03-27T16:33:59.756Z,9.13
2023-03-27T16:36:30.833Z,9.01
2023-03-27T16:38:58.937Z,8.89
2023-03-27T16:41:27.062Z,8.83
2023-03-27T16:43:54.996Z,8.76
2023-03-27T16:46:26.106Z,8.77
2023-03-27T16:48:56.359Z,8.74
2023-03-27T16:51:26.828Z,8.71
2023-03-27T16:53:55.341Z,8.62
2023-03-27T16:56:24.002Z,8.58
2023-03-27T16:58:52.075Z,8.48
2023-03-27T17:01:20.564Z,8.46
2023-03-27T17:03:48.752Z,8.44
2023-03-27T17:06:18.944Z,8.42
2023-03-27T17:08:48.250Z,8.39
2023-03-27T17:11:16.841Z,8.39
2023-03-27T17:13:45.217Z,8.37
2023-03-27T17:16:13.633Z,8.37
2023-03-27T17:18:41.810Z,8.38
2023-03-27T17:21:09.875Z,8.35
2023-03-27T17:23:38.191Z,8.34
2023-03-27T17:26:06.632Z,8.35
2023-03-27T17:28:36.230Z,8.34
2023-03-27T17:31:05.555Z,8.36
2023-03-27T17:33:34.334Z,8.36
2023-03-27T17:36:08.781Z,8.29
2023-03-27T17:38:36.855Z,8.27
2023-03-27T17:41:05.720Z,8.24
2023-03-27T17:43:33.858Z,8.23
2023-03-27T17:46:02.177Z,8.21
2023-03-27T17:48:33.201Z,8.20
2023-03-27T17:51:09.023Z,8.20
2023-03-27T17:53:39.193Z,8.19
2023-03-27T17:56:08.496Z,8.15
2023-03-27T17:58:37.232Z,8.11
2023-03-27T18:01:21.829Z,8.08
2023-03-27T18:03:51.367Z,8.00
2023-03-27T18:06:19.575Z,7.91
2023-03-27T18:08:47.939Z,7.87
2023-03-27T18:11:16.739Z,7.77
2023-03-27T18:13:45.140Z,7.78
2023-03-27T18:16:13.276Z,7.76
2023-03-27T18:18:41.482Z,7.72
2023-03-27T18:21:09.887Z,7.63
2023-03-27T18:23:46.552Z,7.53
2023-03-27T18:26:16.712Z,7.31
2023-03-27T18:28:44.778Z,7.15
2023-03-27T18:31:13.360Z,7.00
2023-03-27T18:33:41.597Z,6.88
2023-03-27T18:36:12.783Z,6.77
2023-03-27T18:38:42.155Z,6.67
2023-03-27T18:41:10.977Z,6.59
2023-03-27T18:43:39.044Z,6.53
2023-03-27T18:46:07.841Z,6.43
2023-03-27T18:48:36.421Z,6.36
2023-03-27T18:51:05.904Z,6.34
2023-03-27T18:53:34.768Z,6.37
2023-03-27T18:56:03.385Z,6.34
2023-03-27T18:58:32.293Z,6.32
2023-03-27T19:01:01.051Z,6.29
2023-03-27T19:03:35.096Z,6.30
2023-03-27T19:06:06.711Z,6.27
2023-03-27T19:08:37.981Z,6.29
2023-03-27T19:11:07.369Z,6.31
2023-03-27T19:13:54.118Z,6.30
2023-03-27T19:16:34.295Z,6.28
2023-03-27T19:19:38.035Z,6.30
2023-03-27T19:22:22.658Z,6.29
2023-03-27T19:24:57.343Z,6.30
2023-03-27T19:27:26.118Z,6.31
2023-03-27T19:30:08.670Z,5.91
2023-03-27T19:32:37.777Z,5.17
2023-03-27T19:35:07.176Z,4.60
2023-03-27T19:37:35.695Z,4.15
2023-03-27T19:40:05.587Z,3.75
2023-03-27T19:42:34.233Z,3.38
2023-03-27T19:45:02.309Z,3.12
2023-03-27T19:47:30.561Z,2.84
2023-03-27T19:49:59.288Z,2.61
2023-03-27T19:52:42.596Z,2.42
2023-03-27T19:55:11.091Z,2.28
2023-03-27T19:57:39.188Z,2.07
2023-03-27T20:00:11.886Z,1.91
2023-03-27T20:02:44.059Z,1.68
2023-03-27T20:05:12.301Z,1.50
2023-03-27T20:07:40.370Z,1.38
2023-03-27T20:10:10.503Z,1.30
2023-03-27T20:12:39.330Z,1.25
2023-03-27T20:15:12.309Z,1.16
2023-03-27T20:17:43.462Z,1.10
2023-03-27T20:20:12.104Z,1.00
2023-03-27T20:22:54.291Z,0.94
2023-03-27T20:25:25.814Z,0.95
2023-03-27T20:27:54.799Z,0.94
2023-03-27T20:30:22.893Z,0.87
2023-03-27T20:32:53.033Z,0.82
2023-03-27T20:35:24.761Z,0.77
2023-03-27T20:37:56.278Z,0.71
2023-03-27T20:40:26.307Z,0.64
2023-03-27T20:43:03.320Z,0.56
2023-03-27T20:45:32.287Z,0.48
2023-03-27T20:48:03.236Z,0.43
2023-03-27T20:50:35.089Z,0.38
2023-03-27T20:53:04.571Z,0.37
2023-03-27T20:55:39.378Z,0.30
2023-03-27T20:58:09.568Z,0.22
2023-03-27T21:00:37.806Z,0.14
2023-03-27T21:03:06.198Z,0.11
2023-03-27T21:05:38.452Z,0.07
2023-03-27T21:08:07.609Z,0.05
2023-03-27T21:10:36.654Z,0.03
2023-03-27T21:13:05.664Z,0.04
2023-03-27T21:15:34.731Z,0.05
2023-03-27T21:18:02.931Z,0.01
2023-03-27T21:20:32.741Z,-0.03
2023-03-27T21:23:02.732Z,-0.03
2023-03-27T21:25:30.733Z,0.00
2023-03-27T21:28:02.540Z,-0.06
2023-03-27T21:30:46.802Z,-0.07
2023-03-27T21:33:16.675Z,-0.07
2023-03-27T21:35:49.082Z,-0.10
2023-03-27T21:38:18.400Z,-0.10
2023-03-27T21:40:47.572Z,-0.09
2023-03-27T21:43:15.973Z,-0.08
2023-03-27T21:45:44.501Z,-0.16
2023-03-27T21:48:12.639Z,-0.17
2023-03-27T21:50:40.812Z,-0.14
2023-03-27T21:53:08.882Z,-0.18
2023-03-27T21:55:37.551Z,-0.22
2023-03-27T21:58:06.196Z,-0.25
2023-03-27T22:00:34.476Z,-0.29
2023-03-27T22:03:03.116Z,-0.34
2023-03-27T22:05:31.262Z,-0.31
2023-03-27T22:07:59.421Z,-0.33
2023-03-27T22:10:27.661Z,-0.34
2023-03-27T22:12:55.950Z,-0.37
2023-03-27T22:15:24.034Z,-0.42
2023-03-27T22:17:52.509Z,-0.45
2023-03-27T22:20:21.194Z,-0.44
2023-03-27T22:22:49.392Z,-0.44
2023-03-27T22:25:17.776Z,-0.47
2023-03-27T22:27:50.416Z,-0.51
2023-03-27T22:30:18.674Z,-0.54
2023-03-27T22:32:46.757Z,-0.53
2023-03-27T22:35:15.119Z,-0.54
2023-03-27T22:37:43.202Z,-0.58
2023-03-27T22:40:12.103Z,-0.61
2023-03-27T22:42:40.290Z,-0.61
2023-03-27T22:45:08.994Z,-0.64
2023-03-27T22:47:37.137Z,-0.70
2023-03-27T22:50:06.548Z,-0.70
2023-03-27T22:52:34.663Z,-0.73
2023-03-27T22:55:02.874Z,-0.75
2023-03-27T22:57:31.327Z,-0.79
2023-03-27T22:59:59.382Z,-0.78
2023-03-27T23:02:27.474Z,-0.82
2023-03-27T23:04:56.103Z,-0.82
2023-03-27T23:07:24.265Z,-0.87
2023-03-27T23:09:52.338Z,-0.88
2023-03-27T23:12:20.357Z,-0.92
2023-03-27T23:14:48.510Z,-0.97
2023-03-27T23:17:16.494Z,-1.00
2023-03-27T23:19:44.700Z,-1.04
2023-03-27T23:22:12.781Z,-1.05
2023-03-27T23:24:40.889Z,-1.07
2023-03-27T23:27:08.889Z,-1.10
2023-03-27T23:29:36.887Z,-1.17
2023-03-27T23:32:05.952Z,-1.20
2023-03-27T23:34:33.936Z,-1.21
2023-03-27T23:37:01.934Z,-1.21
2023-03-27T23:39:30.042Z,-1.24
2023-03-27T23:41:58.072Z,-1.25
2023-03-27T23:44:26.118Z,-1.26
2023-03-27T23:46:54.129Z,-1.24
2023-03-27T23:49:22.295Z,-1.27
2023-03-27T23:51:50.618Z,-1.27
2023-03-27T23:54:18.582Z,-1.26
2023-03-27T23:56:46.735Z,-1.26
2023-03-27T23:59:15.737Z,-1.27
